Time;durP1;ratioP1;P1;durP2;ratioP2;P2;SDS_P1;SDS_P2;PMS_P1;PMS_P2;Temp;Humidity;BMP_temperature;BMP_pressure;BME280_temperature;BME280_humidity;BME280_pressure;Samples;Min_cycle;Max_cycle;Signal;HPM_P1;HPM_P2
2024/03/01 00:00:31;;;;;;;;;;;;;;;8.54;100.00;100012.97;5077629;28;19987;-77
2024/03/01 00:02:57;;;;;;;;;;;;;;;8.54;100.00;100018.19;5073727;28;19923;-77
2024/03/01 00:05:22;;;;;;;;;;;;;;;8.55;100.00;100017.28;5075802;28;20065;-77
2024/03/01 00:07:48;;;;;;;;;;;;;;;8.55;100.00;100009.44;5078934;28;20270;-77
2024/03/01 00:10:13;;;;;;;;;;;;;;;8.56;100.00;100008.50;5080537;28;20216;-77
2024/03/01 00:12:38;;;;;;;;;;;;;;;8.58;100.00;100000.63;5080297;28;19920;-77
2024/03/01 00:15:04;;;;;;;;;;;;;;;8.57;100.00;100002.38;5073579;28;20127;-77
2024/03/01 00:17:29;;;;;;;;;;;;;;;8.59;100.00;100004.94;5073084;28;19920;-77
2024/03/01 00:19:54;;;;;;;;;;;;;;;8.61;100.00;99998.72;5073285;28;19916;-77
2024/03/01 00:22:19;;;;;;;;;;;;;;;8.59;100.00;99995.34;5082234;28;20154;-77
2024/03/01 00:24:45;;;;;;;;;;;;;;;8.58;100.00;100001.44;5094891;28;19990;-77
2024/03/01 00:27:10;;;;;;;;;;;;;;;8.62;100.00;99989.09;5086293;28;19927;-77
2024/03/01 00:29:37;;;;;;;;;;;;;;;8.63;100.00;99990.81;5082658;28;19950;-77
2024/03/01 00:32:02;;;;;;;;;;;;;;;8.61;100.00;99985.66;5075291;28;20206;-77
2024/03/01 00:34:27;;;;;;;;;;;;;;;8.62;100.00;99978.66;5078356;28;19920;-77
2024/03/01 00:36:53;;;;;;;;;;;;;;;8.60;100.00;99981.38;5088737;28;19921;-77
2024/03/01 00:39:18;;;;;;;;;;;;;;;8.60;100.00;99977.91;5075874;28;19927;-77
2024/03/01 00:41:43;;;;;;;;;;;;;;;8.58;100.00;99980.56;5094914;28;19916;-77
2024/03/01 00:44:09;;;;;;;;;;;;;;;8.61;100.00;99982.22;5083595;28;19931;-77
2024/03/01 00:46:35;;;;;;;;;;;;;;;8.61;100.00;99987.44;5074806;28;19924;-77
2024/03/01 00:49:00;;;;;;;;;;;;;;;8.62;100.00;99976.06;5056994;28;19928;-77
2024/03/01 00:51:25;;;;;;;;;;;;;;;8.63;100.00;99976.00;5075088;28;20246;-77
2024/03/01 00:53:51;;;;;;;;;;;;;;;8.63;100.00;99976.00;5074597;28;19947;-77
2024/03/01 00:56:16;;;;;;;;;;;;;;;8.64;100.00;99980.31;5074778;28;19958;-77
2024/03/01 00:58:41;;;;;;;;;;;;;;;8.64;100.00;99977.69;5060358;28;20144;-77
2024/03/01 01:01:06;;;;;;;;;;;;;;;8.64;100.00;99972.47;5075222;28;19920;-77
2024/03/01 01:03:32;;;;;;;;;;;;;;;8.64;100.00;99972.47;5079708;28;19920;-77
2024/03/01 01:05:57;;;;;;;;;;;;;;;8.67;100.00;99976.69;5074221;28;19924;-77
2024/03/01 01:08:24;;;;;;;;;;;;;;;8.65;100.00;99979.38;5075243;28;19984;-77
2024/03/01 01:10:49;;;;;;;;;;;;;;;8.65;100.00;99965.47;5075858;28;19920;-77
2024/03/01 01:13:14;;;;;;;;;;;;;;;8.65;100.00;99961.09;5078697;28;19927;-77
2024/03/01 01:15:40;;;;;;;;;;;;;;;8.65;100.00;99957.66;5089867;28;19920;-77
2024/03/01 01:18:05;;;;;;;;;;;;;;;8.65;100.00;99952.44;5056212;28;20216;-77
2024/03/01 01:20:30;;;;;;;;;;;;;;;8.65;100.00;99949.81;5074221;28;20208;-77
2024/03/01 01:22:55;;;;;;;;;;;;;;;8.65;100.00;99949.81;5078508;28;19920;-77
2024/03/01 01:25:21;;;;;;;;;;;;;;;8.64;100.00;99948.13;5076433;28;20223;-77
2024/03/01 01:27:46;;;;;;;;;;;;;;;8.63;100.00;99949.06;5074843;28;19912;-77
2024/03/01 01:30:11;;;;;;;;;;;;;;;8.63;100.00;99936.00;5084892;28;20158;-77
2024/03/01 01:32:37;;;;;;;;;;;;;;;8.64;100.00;99930.72;5084460;28;19912;-77
2024/03/01 01:35:02;;;;;;;;;;;;;;;8.66;100.00;99928.03;5059963;28;19912;-77
2024/03/01 01:37:27;;;;;;;;;;;;;;;8.65;100.00;99921.94;5074852;28;19912;-77
2024/03/01 01:39:53;;;;;;;;;;;;;;;8.66;100.00;99909.78;5085049;28;19927;-77
2024/03/01 01:42:18;;;;;;;;;;;;;;;8.65;100.00;99915.91;5078827;28;20231;-77
2024/03/01 01:44:43;;;;;;;;;;;;;;;8.68;100.00;99913.16;5087175;28;19991;-77
2024/03/01 01:47:08;;;;;;;;;;;;;;;8.67;100.00;99916.66;5081437;28;19927;-77
2024/03/01 01:49:34;;;;;;;;;;;;;;;8.69;100.00;99913.97;5082278;28;20180;-77
2024/03/01 01:51:59;;;;;;;;;;;;;;;8.69;100.00;99906.16;5090726;28;19945;-77
2024/03/01 01:54:25;;;;;;;;;;;;;;;8.70;100.00;99908.69;5063064;28;20269;-77
2024/03/01 01:56:50;;;;;;;;;;;;;;;8.70;100.00;99919.13;5090183;28;20273;-77
2024/03/01 01:59:16;;;;;;;;;;;;;;;8.67;100.00;99910.59;5082452;28;20115;-77
2024/03/01 02:01:41;;;;;;;;;;;;;;;8.65;100.00;99916.72;5073996;28;19961;-77
2024/03/01 02:04:06;;;;;;;;;;;;;;;8.68;100.00;99914.88;5056971;28;20129;-77
2024/03/01 02:06:32;;;;;;;;;;;;;;;8.64;100.00;99916.78;5074418;28;20144;-77
2024/03/01 02:08:57;;;;;;;;;;;;;;;8.58;100.00;99930.16;5076968;28;19924;-77
2024/03/01 02:11:24;;;;;;;;;;;;;;;8.43;100.00;99952.59;5072214;28;19991;-77
2024/03/01 02:13:56;;;;;;;;;;;;;;;8.23;100.00;99967.34;5082826;28;19954;-77
2024/03/01 02:16:22;;;;;;;;;;;;;;;7.86;100.00;99978.56;5078584;28;20433;-77
2024/03/01 02:18:48;;;;;;;;;;;;;;;7.75;100.00;99971.19;5077155;28;19916;-77
2024/03/01 02:21:14;;;;;;;;;;;;;;;7.67;100.00;99971.50;5078317;28;19987;-77
2024/03/01 02:23:40;;;;;;;;;;;;;;;7.78;100.00;99986.69;5082056;28;19927;-77
2024/03/01 02:26:05;;;;;;;;;;;;;;;7.53;100.00;99992.13;5076960;28;19920;-77
2024/03/01 02:28:31;;;;;;;;;;;;;;;7.41;100.00;99993.44;5077303;28;20321;-77
2024/03/01 02:30:56;;;;;;;;;;;;;;;7.23;100.00;100005.47;5077407;28;19952;-77
2024/03/01 02:33:22;;;;;;;;;;;;;;;7.12;100.00;100015.47;5081223;28;19943;-77
2024/03/01 02:35:47;;;;;;;;;;;;;;;7.06;100.00;100019.16;5082716;28;19927;-77
2024/03/01 02:38:13;;;;;;;;;;;;;;;6.58;100.00;100014.91;5077084;28;19924;-77
2024/03/01 02:40:38;;;;;;;;;;;;;;;6.65;100.00;100024.19;5077210;28;19928;-77
2024/03/01 02:43:04;;;;;;;;;;;;;;;6.69;100.00;100031.00;5079465;28;19931;-77
2024/03/01 02:45:29;;;;;;;;;;;;;;;6.60;100.00;100026.09;5078214;28;19920;-77
2024/03/01 02:47:55;;;;;;;;;;;;;;;6.40;100.00;100034.63;5083755;28;19910;-77
2024/03/01 02:50:20;;;;;;;;;;;;;;;6.37;100.00;100042.56;5082229;28;19959;-77
2024/03/01 02:52:45;;;;;;;;;;;;;;;6.46;100.00;100029.22;5077143;28;20154;-77
2024/03/01 02:55:11;;;;;;;;;;;;;;;6.50;100.00;100033.41;5077592;28;19921;-77
2024/03/01 02:57:36;;;;;;;;;;;;;;;6.48;100.00;100022.22;5077352;28;20274;-77
2024/03/01 03:00:05;;;;;;;;;;;;;;;6.42;100.00;100022.44;5076732;28;19920;-77
2024/03/01 03:02:31;;;;;;;;;;;;;;;6.14;100.00;100023.41;5089411;28;19920;-77
2024/03/01 03:04:56;;;;;;;;;;;;;;;6.15;100.00;100034.69;5076488;28;20105;-77
2024/03/01 03:07:21;;;;;;;;;;;;;;;6.12;100.00;100029.59;5080067;28;19920;-77
2024/03/01 03:09:46;;;;;;;;;;;;;;;6.14;100.00;100044.22;5076629;28;19921;-77
2024/03/01 03:12:11;;;;;;;;;;;;;;;6.22;100.00;100051.78;5077593;28;19924;-77
2024/03/01 03:14:37;;;;;;;;;;;;;;;6.41;100.00;100064.13;5084612;28;19965;-77
2024/03/01 03:17:06;;;;;;;;;;;;;;;6.43;100.00;100063.16;5081167;28;19932;-77
2024/03/01 03:19:31;;;;;;;;;;;;;;;6.54;100.00;100073.16;5076766;28;20281;-77
2024/03/01 03:21:56;;;;;;;;;;;;;;;6.40;100.00;100072.81;5076225;28;19916;-77
2024/03/01 03:24:22;;;;;;;;;;;;;;;6.34;100.00;100085.13;5076998;28;20219;-77
2024/03/01 03:26:47;;;;;;;;;;;;;;;6.42;100.00;100074.47;5058397;28;20252;-77
2024/03/01 03:29:12;;;;;;;;;;;;;;;6.48;100.00;100076.84;5075806;28;20148;-77
2024/03/01 03:31:38;;;;;;;;;;;;;;;6.47;100.00;100077.72;5073308;28;20223;-77
2024/03/01 03:34:04;;;;;;;;;;;;;;;6.48;100.00;100076.84;5084365;28;19920;-77
2024/03/01 03:36:29;;;;;;;;;;;;;;;6.52;100.00;100090.59;5076661;28;19924;-77
2024/03/01 03:38:55;;;;;;;;;;;;;;;6.52;100.00;100083.63;5090698;28;19920;-77
2024/03/01 03:41:20;;;;;;;;;;;;;;;6.56;100.00;100079.16;5080421;28;19920;-77
2024/03/01 03:43:45;;;;;;;;;;;;;;;6.52;100.00;100087.97;5081138;28;19923;-77
2024/03/01 03:46:11;;;;;;;;;;;;;;;6.46;100.00;100088.22;5083967;28;19943;-77
2024/03/01 03:48:36;;;;;;;;;;;;;;;6.40;100.00;100088.41;5080123;28;19926;-77
2024/03/01 03:51:01;;;;;;;;;;;;;;;6.34;100.00;100103.31;5083465;28;19920;-77
2024/03/01 03:53:26;;;;;;;;;;;;;;;6.40;100.00;100104.84;5079785;28;19986;-77
2024/03/01 03:55:52;;;;;;;;;;;;;;;6.46;100.00;100106.44;5075246;28;19920;-77
2024/03/01 03:58:17;;;;;;;;;;;;;;;6.44;100.00;100129.00;5075527;28;19953;-77
2024/03/01 04:00:43;;;;;;;;;;;;;;;6.43;100.00;100130.78;5075550;28;19943;-77
2024/03/01 04:03:08;;;;;;;;;;;;;;;6.46;100.00;100129.84;5080305;28;20339;-77
2024/03/01 04:05:33;;;;;;;;;;;;;;;6.49;100.00;100129.72;5067829;28;19987;-77
2024/03/01 04:07:59;;;;;;;;;;;;;;;6.46;100.00;100130.69;5088961;28;19931;-77
2024/03/01 04:10:24;;;;;;;;;;;;;;;6.49;100.00;100133.19;5087149;28;19920;-77
2024/03/01 04:12:49;;;;;;;;;;;;;;;6.45;100.00;100134.16;5089797;28;20206;-77
2024/03/01 04:15:15;;;;;;;;;;;;;;;6.30;100.00;100143.34;5082498;28;19963;-77
2024/03/01 04:17:40;;;;;;;;;;;;;;;6.37;100.00;100148.34;5080881;28;19924;-77
2024/03/01 04:20:06;;;;;;;;;;;;;;;6.40;100.00;100143.03;5052488;28;19928;-77
2024/03/01 04:22:31;;;;;;;;;;;;;;;6.36;100.00;100146.66;5075420;28;19920;-77
2024/03/01 04:24:56;;;;;;;;;;;;;;;6.27;100.00;100147.81;5074954;28;20204;-77
2024/03/01 04:27:22;;;;;;;;;;;;;;;6.31;100.00;100150.25;5075252;28;19926;-77
2024/03/01 04:29:47;;;;;;;;;;;;;;;6.29;100.00;100149.47;5075367;28;19916;-77
2024/03/01 04:32:12;;;;;;;;;;;;;;;6.24;100.00;100148.78;5074672;28;20286;-77
2024/03/01 04:34:38;;;;;;;;;;;;;;;6.29;100.00;100153.81;5079465;28;19981;-77
2024/03/01 04:37:03;;;;;;;;;;;;;;;6.26;100.00;100148.72;5058451;28;19925;-77
2024/03/01 04:39:28;;;;;;;;;;;;;;;6.26;100.00;100146.13;5061940;28;19979;-77
2024/03/01 04:41:54;;;;;;;;;;;;;;;6.22;100.00;100147.09;5074527;28;19928;-77
2024/03/01 04:44:20;;;;;;;;;;;;;;;6.21;100.00;100154.06;5080714;28;19930;-77
2024/03/01 04:46:45;;;;;;;;;;;;;;;6.21;100.00;100148.88;5056654;28;19995;-76
2024/03/01 04:49:11;;;;;;;;;;;;;;;6.23;100.00;100151.41;5060903;28;19927;-77
2024/03/01 04:51:36;;;;;;;;;;;;;;;6.23;100.00;100151.41;5066891;28;20123;-77
2024/03/01 04:54:02;;;;;;;;;;;;;;;6.14;100.00;100155.16;5074743;28;19920;-77
2024/03/01 04:56:28;;;;;;;;;;;;;;;6.11;100.00;100157.88;5075292;28;19931;-77
2024/03/01 04:58:53;;;;;;;;;;;;;;;5.99;100.00;100166.09;5075541;28;20220;-77
2024/03/01 05:01:19;;;;;;;;;;;;;;;6.02;100.00;100168.56;5076653;28;19920;-77
2024/03/01 05:03:44;;;;;;;;;;;;;;;6.02;100.00;100165.97;5064811;28;19912;-77
2024/03/01 05:06:10;;;;;;;;;;;;;;;6.04;100.00;100165.03;5081495;28;20096;-77
2024/03/01 05:08:35;;;;;;;;;;;;;;;5.99;100.00;100163.50;5056653;28;20261;-77
2024/03/01 05:11:01;;;;;;;;;;;;;;;5.87;100.00;100168.13;5075572;28;19920;-77
2024/03/01 05:13:26;;;;;;;;;;;;;;;5.85;100.00;100171.69;5083393;28;19916;-77
2024/03/01 05:15:52;;;;;;;;;;;;;;;5.89;100.00;100170.69;5076780;28;20007;-79
2024/03/01 05:18:18;;;;;;;;;;;;;;;5.90;100.00;100175.84;5084301;28;19916;-79
2024/03/01 05:20:43;;;;;;;;;;;;;;;5.85;100.00;100162.13;5078096;28;19951;-76
2024/03/01 05:23:08;;;;;;;;;;;;;;;5.82;100.00;100176.97;5081413;28;20151;-76
2024/03/01 05:25:34;;;;;;;;;;;;;;;5.81;100.00;100175.28;5080703;28;19929;-78
2024/03/01 05:27:59;;;;;;;;;;;;;;;5.70;100.00;100175.63;5093225;28;19927;-79
2024/03/01 05:30:26;;;;;;;;;;;;;;;5.70;100.00;100189.44;5076509;28;19923;-78
2024/03/01 05:32:51;;;;;;;;;;;;;;;5.73;100.00;100191.09;5076056;28;19926;-78
2024/03/01 05:35:18;;;;;;;;;;;;;;;5.77;100.00;100197.91;5060208;28;20263;-77
2024/03/01 05:37:43;;;;;;;;;;;;;;;5.66;100.00;100190.44;5059489;28;19954;-76
2024/03/01 05:40:10;;;;;;;;;;;;;;;5.64;100.00;100199.16;5074165;28;20216;-76
2024/03/01 05:42:36;;;;;;;;;;;;;;;5.55;100.00;100200.31;5080469;28;19928;-78
2024/03/01 05:45:01;;;;;;;;;;;;;;;5.56;100.00;100202.00;5062010;28;19924;-79
2024/03/01 05:47:27;;;;;;;;;;;;;;;5.52;100.00;100200.41;5087928;28;19920;-79
2024/03/01 05:49:52;;;;;;;;;;;;;;;5.58;100.00;100203.69;5075339;28;19931;-79
2024/03/01 05:52:17;;;;;;;;;;;;;;;5.61;100.00;100207.91;5091662;28;19927;-79
2024/03/01 05:54:42;;;;;;;;;;;;;;;5.60;100.00;100208.81;5086621;28;19983;-79
2024/03/01 05:57:08;;;;;;;;;;;;;;;5.57;100.00;100211.50;5079140;28;19924;-79
2024/03/01 05:59:33;;;;;;;;;;;;;;;5.50;100.00;100222.97;5087222;28;19920;-79
2024/03/01 06:01:59;;;;;;;;;;;;;;;5.45;100.00;100217.91;5083488;28;20108;-79
2024/03/01 06:04:24;;;;;;;;;;;;;;;5.48;100.00;100228.22;5085596;28;19997;-78
2024/03/01 06:06:49;;;;;;;;;;;;;;;5.49;100.00;100229.91;5070901;28;19920;-78
2024/03/01 06:09:16;;;;;;;;;;;;;;;5.39;100.00;100231.09;5079512;28;19989;-78
2024/03/01 06:11:41;;;;;;;;;;;;;;;5.39;100.00;100234.53;5084076;28;19920;-78
2024/03/01 06:14:07;;;;;;;;;;;;;;;5.42;100.00;100235.31;5084995;28;19930;-78
2024/03/01 06:16:32;;;;;;;;;;;;;;;5.42;100.00;100235.31;5081996;28;20175;-79
2024/03/01 06:18:57;;;;;;;;;;;;;;;5.44;100.00;100236.13;5082659;28;20190;-78
2024/03/01 06:21:23;;;;;;;;;;;;;;;5.44;100.00;100236.13;5077060;28;20184;-79
2024/03/01 06:23:48;;;;;;;;;;;;;;;5.43;100.00;100243.06;5061112;28;19924;-78
2024/03/01 06:26:14;;;;;;;;;;;;;;;5.39;100.00;100228.50;5081274;28;19966;-78
2024/03/01 06:28:41;;;;;;;;;;;;;;;5.37;100.00;100233.72;5061468;28;20172;-79
2024/03/01 06:31:07;;;;;;;;;;;;;;;5.32;100.00;100234.75;5084439;28;20278;-79
2024/03/01 06:33:33;;;;;;;;;;;;;;;5.35;100.00;100239.88;5067713;28;19957;-79
2024/03/01 06:35:58;;;;;;;;;;;;;;;5.31;100.00;100240.81;5084519;28;20254;-78
2024/03/01 06:38:23;;;;;;;;;;;;;;;5.29;100.00;100238.25;5078502;28;20262;-79
2024/03/01 06:40:48;;;;;;;;;;;;;;;5.32;100.00;100234.75;5074969;28;19928;-78
2024/03/01 06:43:14;;;;;;;;;;;;;;;5.32;100.00;100234.75;5079565;28;19935;-78
2024/03/01 06:45:39;;;;;;;;;;;;;;;5.33;100.00;100237.31;5079479;28;19920;-77
2024/03/01 06:48:04;;;;;;;;;;;;;;;5.34;100.00;100236.41;5072311;28;20131;-77
2024/03/01 06:50:30;;;;;;;;;;;;;;;5.35;100.00;100235.50;5060602;28;19920;-77
2024/03/01 06:52:55;;;;;;;;;;;;;;;5.37;100.00;100238.06;5079686;28;19920;-77
2024/03/01 06:55:20;;;;;;;;;;;;;;;5.43;100.00;100237.88;5083373;28;20146;-78
2024/03/01 06:57:46;;;;;;;;;;;;;;;5.45;100.00;100240.44;5056962;28;20007;-78
2024/03/01 07:00:12;;;;;;;;;;;;;;;5.46;100.00;100240.41;5065691;28;19919;-78
2024/03/01 07:02:37;;;;;;;;;;;;;;;5.46;100.00;100240.41;5080603;28;19993;-77
2024/03/01 07:05:03;;;;;;;;;;;;;;;5.41;100.00;100229.28;5073220;28;20384;-77
2024/03/01 07:07:28;;;;;;;;;;;;;;;5.41;100.00;100231.03;5072013;28;19920;-77
2024/03/01 07:09:53;;;;;;;;;;;;;;;5.43;100.00;100216.25;5083853;28;19958;-77
2024/03/01 07:12:18;;;;;;;;;;;;;;;5.40;100.00;100209.41;5056743;28;19920;-77
2024/03/01 07:14:44;;;;;;;;;;;;;;;5.40;100.00;100206.78;5072419;28;20009;-77
2024/03/01 07:17:09;;;;;;;;;;;;;;;5.43;100.00;100211.91;5078412;28;19924;-77
2024/03/01 07:19:34;;;;;;;;;;;;;;;5.48;100.00;100215.22;5082273;28;19956;-77
2024/03/01 07:22:00;;;;;;;;;;;;;;;5.49;100.00;100211.72;5086259;28;19920;-77
2024/03/01 07:24:25;;;;;;;;;;;;;;;5.50;100.00;100205.63;5089856;28;19948;-77
2024/03/01 07:26:50;;;;;;;;;;;;;;;5.51;100.00;100203.88;5075503;28;20239;-77
2024/03/01 07:29:15;;;;;;;;;;;;;;;5.53;100.00;100209.88;5077516;28;20243;-77
2024/03/01 07:31:41;;;;;;;;;;;;;;;5.52;100.00;100206.44;5075315;28;19927;-77
2024/03/01 07:34:06;;;;;;;;;;;;;;;5.51;100.00;100199.56;5076785;28;19912;-77
2024/03/01 07:36:31;;;;;;;;;;;;;;;5.55;100.00;100201.16;5074961;28;19977;-77
2024/03/01 07:38:57;;;;;;;;;;;;;;;5.59;100.00;100201.91;5086180;28;20112;-77
2024/03/01 07:41:22;;;;;;;;;;;;;;;5.60;100.00;100202.75;5074790;28;20178;-77
2024/03/01 07:43:48;;;;;;;;;;;;;;;5.61;100.00;100204.47;5080173;28;20159;-77
2024/03/01 07:46:13;;;;;;;;;;;;;;;5.60;100.00;100195.81;5081616;28;20029;-77
2024/03/01 07:48:38;;;;;;;;;;;;;;;5.58;100.00;100205.41;5076668;28;20236;-76
2024/03/01 07:51:04;;;;;;;;;;;;;;;5.60;100.00;100211.41;5075678;28;19954;-76
2024/03/01 07:53:30;;;;;;;;;;;;;;;5.63;100.00;100208.72;5080974;28;19952;-77
2024/03/01 07:55:56;;;;;;;;;;;;;;;5.67;100.00;100209.47;5075082;28;19920;-77
2024/03/01 07:58:21;;;;;;;;;;;;;;;5.66;100.00;100219.03;5090293;28;19928;-76
2024/03/01 08:00:46;;;;;;;;;;;;;;;5.71;100.00;100213.69;5075520;28;20281;-77
2024/03/01 08:03:11;;;;;;;;;;;;;;;5.70;100.00;100202.44;5077299;28;19924;-77
2024/03/01 08:05:38;;;;;;;;;;;;;;;5.72;100.00;100208.44;5084825;28;20322;-76
2024/03/01 08:08:04;;;;;;;;;;;;;;;5.73;100.00;100210.16;5078604;28;19966;-76
2024/03/01 08:10:33;;;;;;;;;;;;;;;5.77;100.00;100216.94;5076157;28;20215;-76
2024/03/01 08:12:58;;;;;;;;;;;;;;;5.79;100.00;100201.31;5076814;28;19917;-77
2024/03/01 08:15:25;;;;;;;;;;;;;;;5.80;100.00;100203.00;5076917;28;20271;-77
2024/03/01 08:17:51;;;;;;;;;;;;;;;5.83;100.00;100210.72;5066430;28;19924;-77
2024/03/01 08:20:39;;;;;;;;;;;;;;;5.86;100.00;100218.41;5076701;28;20264;-77
2024/03/01 08:23:04;;;;;;;;;;;;;;;5.91;100.00;100219.13;5070751;28;19927;-76
2024/03/01 08:25:29;;;;;;;;;;;;;;;5.95;100.00;100231.16;5061094;28;20118;-76
2024/03/01 08:27:56;;;;;;;;;;;;;;;5.97;100.00;100223.31;5081220;28;19999;-77
2024/03/01 08:30:37;;;;;;;;;;;;;;;6.01;100.00;100226.66;5080597;28;19922;-76
2024/03/01 08:33:02;;;;;;;;;;;;;;;6.04;100.00;100221.34;5076431;28;20259;-77
2024/03/01 08:35:28;;;;;;;;;;;;;;;6.05;100.00;100202.28;5082262;28;19959;-76
2024/03/01 08:37:53;;;;;;;;;;;;;;;6.06;100.00;100185.78;5073666;28;19930;-76
2024/03/01 08:40:38;;;;;;;;;;;;;;;6.09;100.00;100198.66;5057061;28;20171;-76
2024/03/01 08:43:03;;;;;;;;;;;;;;;6.08;100.00;100195.22;5075867;28;19924;-76
2024/03/01 08:45:39;;;;;;;;;;;;;;;6.11;100.00;100189.06;5081545;28;19957;-76
2024/03/01 08:48:11;;;;;;;;;;;;;;;6.14;100.00;100194.16;5081507;28;20154;-76
2024/03/01 08:50:44;;;;;;;;;;;;;;;6.17;100.00;100190.59;5076020;28;20238;-76
2024/03/01 08:53:28;;;;;;;;;;;;;;;6.22;100.00;100192.19;5081052;28;19958;-76
2024/03/01 08:55:54;;;;;;;;;;;;;;;6.27;100.00;100192.84;5073655;28;19958;-76
2024/03/01 08:58:23;;;;;;;;;;;;;;;6.31;100.00;100198.81;5074883;28;19920;-76
2024/03/01 09:00:49;;;;;;;;;;;;;;;6.27;100.00;100203.25;5075335;28;19920;-76
2024/03/01 09:03:17;;;;;;;;;;;;;;;6.33;100.00;100197.88;5082086;28;20216;-76
2024/03/01 09:05:42;;;;;;;;;;;;;;;6.36;100.00;100201.25;5076171;28;19920;-76
2024/03/01 09:08:08;;;;;;;;;;;;;;;6.36;100.00;100201.25;5074762;28;20215;-76
2024/03/01 09:10:34;;;;;;;;;;;;;;;6.36;100.00;100194.31;5077769;28;20359;-77
2024/03/01 09:13:00;;;;;;;;;;;;;;;6.35;100.00;100197.81;5077288;28;19970;-76
2024/03/01 09:15:26;;;;;;;;;;;;;;;6.37;100.00;100200.34;5062531;28;19924;-76
2024/03/01 09:17:53;;;;;;;;;;;;;;;6.36;100.00;100188.25;5057443;28;19964;-76
2024/03/01 09:20:33;;;;;;;;;;;;;;;6.37;100.00;100193.41;5082049;28;20258;-76
2024/03/01 09:22:58;;;;;;;;;;;;;;;6.41;100.00;100195.00;5082279;28;20000;-77
2024/03/01 09:25:42;;;;;;;;;;;;;;;6.46;100.00;100200.91;5083335;28;19920;-76
2024/03/01 09:28:08;;;;;;;;;;;;;;;6.51;100.00;100198.13;5081685;28;19930;-76
2024/03/01 09:30:33;;;;;;;;;;;;;;;6.50;100.00;100193.84;5086015;28;19955;-77
2024/03/01 09:32:59;;;;;;;;;;;;;;;6.53;100.00;100196.31;5080748;28;20113;-76
2024/03/01 09:35:25;;;;;;;;;;;;;;;6.53;100.00;100185.91;5081249;28;19927;-76
2024/03/01 09:37:51;;;;;;;;;;;;;;;6.51;100.00;100179.91;5080472;28;20132;-77
2024/03/01 09:40:39;;;;;;;;;;;;;;;6.49;100.00;100173.94;5064466;28;19958;-76
2024/03/01 09:43:12;;;;;;;;;;;;;;;6.44;100.00;100170.63;5073539;28;20000;-76
2024/03/01 09:45:47;;;;;;;;;;;;;;;6.45;100.00;100170.59;5092158;28;20234;-76
2024/03/01 09:48:18;;;;;;;;;;;;;;;6.49;100.00;100168.72;5085876;28;19962;-76
2024/03/01 09:51:22;;;;;;;;;;;;;;;6.57;100.00;100161.53;5081140;28;19927;-76
2024/03/01 09:53:47;;;;;;;;;;;;;;;6.68;100.00;100155.94;5014934;28;19921;-76
2024/03/01 09:56:12;;;;;;;;;;;;;;;6.73;100.00;100154.88;5017178;28;19922;-76
2024/03/01 09:58:46;;;;;;;;;;;;;;;6.76;100.00;100140.03;5039919;28;19924;-76
2024/03/01 10:01:17;;;;;;;;;;;;;;;6.76;100.00;100146.09;5077003;28;19920;-76
2024/03/01 10:04:15;;;;;;;;;;;;;;;6.76;100.00;100132.25;5082015;28;20265;-76
2024/03/01 10:06:54;;;;;;;;;;;;;;;6.73;100.00;100133.19;5046523;28;19921;-77
2024/03/01 10:09:23;;;;;;;;;;;;;;;6.75;100.00;100134.00;5081028;28;19931;-76
2024/03/01 10:12:21;;;;;;;;;;;;;;;6.78;100.00;100127.81;5081657;28;20208;-77
2024/03/01 10:14:55;;;;;;;;;;;;;;;6.79;100.00;100116.53;5044694;28;19921;-77
2024/03/01 10:17:20;;;;;;;;;;;;;;;6.84;100.00;100124.97;5083514;28;19924;-77
2024/03/01 10:19:49;;;;;;;;;;;;;;;6.88;100.00;100097.97;5081624;28;19927;-77
2024/03/01 10:22:20;;;;;;;;;;;;;;;6.97;100.00;100097.63;5081541;28;19920;-77
2024/03/01 10:25:03;;;;;;;;;;;;;;;7.03;100.00;100092.16;5080843;28;19920;-77
2024/03/01 10:27:29;;;;;;;;;;;;;;;7.07;100.00;100092.91;5084350;28;19977;-77
2024/03/01 10:30:08;;;;;;;;;;;;;;;7.07;100.00;100088.53;5082568;28;20215;-77
2024/03/01 10:33:03;;;;;;;;;;;;;;;7.15;100.00;100080.44;5079921;28;20360;-77
2024/03/01 10:35:37;;;;;;;;;;;;;;;7.25;100.00;100075.72;5078718;28;20165;-77
2024/03/01 10:38:20;;;;;;;;;;;;;;;7.32;100.00;100071.97;5076114;28;19942;-77
2024/03/01 10:41:02;;;;;;;;;;;;;;;7.40;100.00;100075.09;5076432;28;19917;-77
2024/03/01 10:43:42;;;;;;;;;;;;;;;7.47;100.00;100053.09;5082065;28;19920;-77
2024/03/01 10:46:11;;;;;;;;;;;;;;;7.47;100.00;100060.09;5095482;28;19923;-77
2024/03/01 10:48:50;;;;;;;;;;;;;;;7.53;100.00;100066.81;5076683;28;19921;-77
2024/03/01 10:51:18;;;;;;;;;;;;;;;7.56;100.00;100044.06;5075767;28;19916;-77
2024/03/01 10:53:48;;;;;;;;;;;;;;;7.60;100.00;100039.59;5057390;28;19920;-77
2024/03/01 10:56:14;;;;;;;;;;;;;;;7.66;100.00;100042.78;5075330;28;19931;-77
2024/03/01 10:59:00;;;;;;;;;;;;;;;7.65;100.00;100029.81;5070722;28;19924;-77
2024/03/01 11:01:50;;;;;;;;;;;;;;;7.62;100.00;100027.34;5058101;28;19916;-77
2024/03/01 11:04:34;;;;;;;;;;;;;;;7.61;100.00;100020.44;5077005;28;19993;-77
2024/03/01 11:07:18;;;;;;;;;;;;;;;7.61;100.00;100020.44;5058348;28;20089;-77
2024/03/01 11:09:47;;;;;;;;;;;;;;;7.66;100.00;100010.69;5058600;28;19928;-77
2024/03/01 11:12:12;;;;;;;;;;;;;;;7.63;100.00;100003.00;5076416;28;20178;-77
2024/03/01 11:14:41;;;;;;;;;;;;;;;7.62;100.00;99998.66;5090804;28;19920;-77
2024/03/01 11:17:07;;;;;;;;;;;;;;;7.61;100.00;99999.59;5095590;28;19920;-77
2024/03/01 11:19:33;;;;;;;;;;;;;;;7.63;100.00;99996.00;5095869;28;19920;-77
2024/03/01 11:22:08;;;;;;;;;;;;;;;7.68;100.00;99985.41;5077995;28;20199;-77
2024/03/01 11:24:34;;;;;;;;;;;;;;;7.73;100.00;99985.19;5075734;28;19919;-77
2024/03/01 11:27:02;;;;;;;;;;;;;;;7.72;100.00;99984.34;5095747;28;19920;-77
2024/03/01 11:29:41;;;;;;;;;;;;;;;7.73;100.00;99978.25;5084929;28;20154;-77
2024/03/01 11:32:22;;;;;;;;;;;;;;;7.78;100.00;99960.63;5076006;28;19987;-77
2024/03/01 11:34:59;;;;;;;;;;;;;;;7.79;100.00;99959.72;5076623;28;19920;-77
2024/03/01 11:37:39;;;;;;;;;;;;;;;7.78;100.00;99952.81;5076270;28;19921;-77
2024/03/01 11:40:11;;;;;;;;;;;;;;;7.83;100.00;99963.88;5075478;28;19959;-77
2024/03/01 11:42:36;;;;;;;;;;;;;;;7.84;100.00;99951.69;5075781;28;19963;-77
2024/03/01 11:45:17;;;;;;;;;;;;;;;7.83;100.00;99950.84;5089465;28;20728;-77
2024/03/01 11:47:57;;;;;;;;;;;;;;;7.91;100.00;99947.06;5075762;28;19927;-77
2024/03/01 11:50:30;;;;;;;;;;;;;;;7.95;100.00;99940.78;5057263;28;20217;-77
2024/03/01 11:53:05;;;;;;;;;;;;;;;8.00;100.00;99938.84;5075838;28;19939;-77
2024/03/01 11:55:39;;;;;;;;;;;;;;;8.00;100.00;99936.22;5075896;28;19954;-77
2024/03/01 11:58:27;;;;;;;;;;;;;;;7.97;100.00;99936.38;5057024;28;19926;-76
2024/03/01 12:01:01;;;;;;;;;;;;;;;8.01;100.00;99945.75;5070993;28;19927;-77
2024/03/01 12:03:42;;;;;;;;;;;;;;;8.03;100.00;99938.72;5086816;28;19915;-77
2024/03/01 12:06:21;;;;;;;;;;;;;;;8.01;100.00;99941.38;5090396;28;19948;-77
2024/03/01 12:08:57;;;;;;;;;;;;;;;7.98;100.00;99935.44;5075495;28;19920;-77
2024/03/01 12:11:38;;;;;;;;;;;;;;;7.91;100.00;99947.06;5075377;28;19939;-77
2024/03/01 12:14:06;;;;;;;;;;;;;;;7.80;100.00;99945.75;5085140;28;19920;-77
2024/03/01 12:16:35;;;;;;;;;;;;;;;7.75;100.00;99939.06;5094676;28;19914;-77
2024/03/01 12:19:15;;;;;;;;;;;;;;;7.70;100.00;99936.66;5094497;28;20234;-77
2024/03/01 12:21:40;;;;;;;;;;;;;;;7.69;100.00;99951.47;5095092;28;20326;-77
2024/03/01 12:24:23;;;;;;;;;;;;;;;7.71;100.00;99927.06;5094502;28;20205;-76
2024/03/01 12:27:03;;;;;;;;;;;;;;;7.66;100.00;99929.91;5094183;28;20205;-76
2024/03/01 12:29:47;;;;;;;;;;;;;;;7.61;100.00;99937.06;5083495;28;19920;-77
2024/03/01 12:32:15;;;;;;;;;;;;;;;7.60;100.00;99932.75;5057051;28;19908;-76
2024/03/01 12:34:49;;;;;;;;;;;;;;;7.58;100.00;99937.19;5075421;28;20086;-77
2024/03/01 12:37:18;;;;;;;;;;;;;;;7.57;100.00;99919.88;5074814;28;19943;-77
2024/03/01 12:39:53;;;;;;;;;;;;;;;7.55;100.00;99938.19;5075254;28;19920;-76
2024/03/01 12:42:30;;;;;;;;;;;;;;;7.55;100.00;99926.88;5067828;28;19939;-76
2024/03/01 12:44:58;;;;;;;;;;;;;;;7.55;100.00;99926.88;5090966;28;19931;-77